GRZ548 Details

Departure: Juneau International Airport (PAJN)
Arrival: Petersburg James A Johnson Airport (PAPG) at N/A
Route: GLAZZ1 ODECO
Notes:


Current Weather Information
PAJN 171553Z 09007KT 2SM RA BR FEW002 BKN007 OVC024 13/13 A2977 RMK AO2 SFC VIS 2 1/2 SLP080 P0014 T01330128
PAPG 171630Z 00000KT 10SM -RA BKN025 BKN030 OVC040 14/13 A2980 RMK AO2 RAB29 P0000